Time;durP1;ratioP1;P1;durP2;ratioP2;P2;SDS_P1;SDS_P2;PMS_P1;PMS_P2;Temp;Humidity;BMP_temperature;BMP_pressure;BME280_temperature;BME280_humidity;BME280_pressure;Samples;Min_cycle;Max_cycle;Signal;HPM_P1;HPM_P2
2023/07/05 00:00:31;;;;;;;10.50;4.30;;;17.40;94.50;;;17.09;63.30;100422.19;5056798;28;20222;-77
2023/07/05 00:03:06;;;;;;;8.57;3.70;;;17.50;94.60;;;17.05;62.50;100425.56;5056794;28;20240;-77
2023/07/05 00:05:41;;;;;;;6.73;3.80;;;17.40;94.50;;;17.05;63.22;100420.16;5057492;28;20229;-77
2023/07/05 00:08:14;;;;;;;10.30;3.93;;;17.50;94.70;;;16.99;63.08;100410.16;5056370;28;20604;-77
2023/07/05 00:10:46;;;;;;;7.10;3.73;;;17.40;94.60;;;16.99;63.32;100410.97;5056608;28;20281;-77
2023/07/05 00:13:18;;;;;;;8.80;4.73;;;17.40;94.50;;;17.00;63.62;100409.13;5056563;28;20289;-77
2023/07/05 00:15:51;;;;;;;8.20;4.03;;;17.40;94.60;;;16.95;63.13;100415.16;5056110;28;20641;-77
2023/07/05 00:18:23;;;;;;;7.57;3.90;;;17.40;94.70;;;16.96;62.78;100413.28;5056361;28;20214;-77
2023/07/05 00:20:59;;;;;;;8.30;4.00;;;17.30;94.60;;;17.00;63.43;100407.25;5056441;28;20191;-77
2023/07/05 00:23:32;;;;;;;9.20;3.80;;;17.40;94.70;;;16.98;62.91;100398.53;5056047;28;20636;-77
2023/07/05 00:26:06;;;;;;;7.97;3.97;;;17.40;94.60;;;16.88;63.56;100392.72;5056230;28;20225;-77
2023/07/05 00:28:38;;;;;;;7.70;3.83;;;17.40;94.50;;;16.97;62.51;100387.91;5056291;28;20270;-77
2023/07/05 00:31:10;;;;;;;9.33;4.17;;;17.40;94.50;;;16.94;63.53;100385.63;5056209;28;20281;-77
2023/07/05 00:33:42;;;;;;;8.83;4.20;;;17.30;94.60;;;16.95;63.07;100387.28;5056184;28;20221;-77
2023/07/05 00:36:14;;;;;;;7.63;4.03;;;17.30;94.40;;;16.91;63.05;100380.63;5056135;28;20186;-77
2023/07/05 00:38:47;;;;;;;7.90;3.70;;;17.40;94.40;;;16.92;63.45;100376.91;5055694;28;20217;-77
2023/07/05 00:41:20;;;;;;;5.90;3.67;;;17.40;94.70;;;16.90;64.31;100370.84;5055727;28;20665;-77
2023/07/05 00:43:53;;;;;;;9.00;4.07;;;17.40;95.10;;;16.84;63.91;100361.72;5055954;28;20349;-77
2023/07/05 00:46:33;;;;;;;7.67;3.67;;;17.30;95.00;;;16.86;63.99;100346.09;5055581;28;20644;-77
2023/07/05 00:49:12;;;;;;;9.10;3.97;;;17.30;95.10;;;16.92;64.20;100352.56;5055886;28;20194;-77
2023/07/05 00:51:53;;;;;;;8.70;4.13;;;17.30;95.10;;;16.89;64.23;100339.44;5055547;28;20221;-77
2023/07/05 00:54:37;;;;;;;7.90;3.90;;;17.40;95.10;;;16.77;64.20;100346.53;5055317;28;20236;-77
2023/07/05 00:57:17;;;;;;;8.63;3.83;;;17.20;95.20;;;16.82;64.45;100344.84;5055454;28;20652;-77
2023/07/05 00:59:57;;;;;;;8.03;4.03;;;17.20;95.30;;;16.73;65.48;100325.34;5055277;28;20610;-77
2023/07/05 01:02:30;;;;;;;19.87;5.57;;;17.20;95.50;;;16.71;65.33;100322.00;5056447;28;20304;-77
2023/07/05 01:05:05;;;;;;;7.93;3.93;;;17.20;95.50;;;16.72;64.33;100322.84;5055517;28;20227;-77
2023/07/05 01:07:37;;;;;;;8.47;4.07;;;17.30;95.70;;;16.73;64.58;100316.41;5055533;28;20194;-77
2023/07/05 01:10:19;;;;;;;10.73;5.00;;;17.10;95.60;;;16.79;64.35;100322.81;5055214;28;20646;-77
2023/07/05 01:13:02;;;;;;;6.73;3.83;;;17.20;95.40;;;16.78;65.67;100319.28;5055142;28;20595;-77
2023/07/05 01:15:45;;;;;;;7.87;3.93;;;17.20;95.60;;;16.79;65.87;100312.00;5055007;28;20226;-77
2023/07/05 01:18:28;;;;;;;8.77;4.40;;;17.20;95.90;;;16.70;65.52;100306.84;5054986;28;20743;-77
2023/07/05 01:21:12;;;;;;;8.67;4.13;;;17.10;95.90;;;16.69;65.82;100294.34;5054979;28;20727;-77
2023/07/05 01:24:31;;;;;;;8.17;4.10;;;17.10;96.10;;;16.70;65.57;100298.72;5055310;28;20293;-77
2023/07/05 01:27:58;;;;;;;8.40;4.70;;;17.20;95.90;;;16.70;65.48;100284.38;5042023;28;20237;-77
2023/07/05 01:31:09;;;;;;;9.10;4.03;;;17.20;96.10;;;16.68;65.39;100281.88;5054769;28;20632;-77
2023/07/05 01:33:53;;;;;;;8.63;4.30;;;17.20;95.60;;;16.70;65.77;100277.09;5055103;28;20217;-77
2023/07/05 01:36:26;;;;;;;8.97;4.67;;;17.20;95.80;;;16.70;65.63;100269.00;5055021;28;20225;-77
2023/07/05 01:38:58;;;;;;;8.40;4.80;;;17.10;96.10;;;16.67;66.15;100255.06;5054919;28;20246;-77
2023/07/05 01:41:30;;;;;;;9.73;4.40;;;17.10;96.20;;;16.61;66.69;100248.63;5054910;28;20218;-77
2023/07/05 01:44:02;;;;;;;10.20;5.40;;;17.10;96.20;;;16.63;65.90;100238.44;5054787;28;20190;-77
2023/07/05 01:46:41;;;;;;;8.93;4.83;;;17.10;96.10;;;16.60;66.04;100236.16;5054843;28;20194;-77
2023/07/05 01:49:41;;;;;;;9.63;4.93;;;17.00;95.90;;;16.60;65.28;100238.88;5054794;28;20206;-77
2023/07/05 01:52:23;;;;;;;7.90;4.80;;;17.10;96.00;;;16.59;65.57;100223.69;5054693;28;20190;-77
2023/07/05 01:55:06;;;;;;;8.40;4.60;;;17.10;96.00;;;16.59;65.49;100218.28;5054619;28;20257;-77
2023/07/05 01:57:47;;;;;;;9.73;4.60;;;17.10;95.80;;;16.58;65.39;100211.22;5054285;28;20186;-77
2023/07/05 02:00:24;;;;;;;8.13;4.40;;;17.10;95.70;;;16.58;64.82;100202.28;5054481;28;20297;-77
2023/07/05 02:03:01;;;;;;;7.20;4.43;;;17.00;95.70;;;16.53;64.67;100221.81;5054487;28;20277;-77
2023/07/05 02:05:37;;;;;;;8.63;4.50;;;17.00;95.50;;;16.54;65.22;100218.03;5054312;28;20226;-77
2023/07/05 02:08:09;;;;;;;7.80;4.30;;;17.00;95.50;;;16.61;65.34;100209.97;5054380;28;20190;-77
2023/07/05 02:10:41;;;;;;;8.80;4.53;;;17.10;95.80;;;16.59;66.73;100191.25;5054319;28;20273;-77
2023/07/05 02:13:13;;;;;;;7.80;5.10;;;17.10;96.80;;;16.58;67.67;100192.28;5053974;28;20719;-77
2023/07/05 02:15:48;;;;;;;11.67;4.80;;;17.00;96.90;;;16.58;67.54;100203.09;5053860;28;20592;-77
2023/07/05 02:18:20;;;;;;;6.63;4.40;;;17.10;96.60;;;16.59;66.69;100193.97;5053796;28;20212;-77
2023/07/05 02:20:54;;;;;;;9.97;5.13;;;17.00;96.60;;;16.61;67.01;100185.66;5054191;28;20199;-77
2023/07/05 02:23:27;;;;;;;10.73;5.33;;;17.10;96.80;;;16.57;68.33;100169.03;5054092;28;20272;-77
2023/07/05 02:26:07;;;;;;;8.27;5.13;;;17.00;97.40;;;16.57;69.16;100158.22;5053976;28;20268;-77
2023/07/05 02:28:39;;;;;;;9.00;4.90;;;17.00;97.70;;;16.55;68.46;100144.06;5053639;28;20640;-77
2023/07/05 02:31:12;;;;;;;10.63;4.73;;;17.00;97.70;;;16.53;67.08;100148.84;5053961;28;20198;-77
2023/07/05 02:33:44;;;;;;;8.97;4.77;;;17.00;97.40;;;16.54;67.83;100152.38;5053935;28;20214;-77
2023/07/05 02:36:19;;;;;;;7.43;4.40;;;17.00;97.40;;;16.50;68.17;100141.16;5053887;28;20191;-77
2023/07/05 02:38:52;;;;;;;9.17;5.20;;;16.90;97.60;;;16.52;66.93;100149.88;5053767;28;20302;-77
2023/07/05 02:41:24;;;;;;;8.07;4.97;;;16.90;97.20;;;16.50;67.96;100157.38;5053796;28;20194;-77
2023/07/05 02:43:57;;;;;;;8.33;4.97;;;17.00;97.40;;;16.53;67.70;100151.56;5053638;28;20281;-77
2023/07/05 02:46:29;;;;;;;8.50;5.40;;;16.90;97.60;;;16.55;68.31;100156.72;5053397;28;20564;-77
2023/07/05 02:49:01;;;;;;;8.67;4.40;;;16.90;97.90;;;16.57;68.66;100141.19;5053626;28;20190;-77
2023/07/05 02:51:34;;;;;;;8.47;5.17;;;17.00;97.70;;;16.56;68.32;100151.16;5053523;28;20217;-77
2023/07/05 02:54:06;;;;;;;9.10;4.93;;;17.00;97.60;;;16.54;68.51;100144.28;5053422;28;20316;-77
2023/07/05 02:56:38;;;;;;;9.63;5.23;;;17.00;97.70;;;16.54;68.67;100139.69;5053541;28;20201;-77
2023/07/05 02:59:10;;;;;;;10.17;5.17;;;17.00;97.70;;;16.52;68.38;100136.38;5053133;28;20214;-77
2023/07/05 03:01:42;;;;;;;11.97;5.33;;;16.90;98.00;;;16.52;70.12;100117.44;5053440;28;20191;-77
2023/07/05 03:04:14;;;;;;;10.53;5.90;;;16.90;98.60;;;16.50;70.66;100108.75;5053360;28;20271;-77
2023/07/05 03:06:47;;;;;;;9.27;6.40;;;16.90;99.40;;;16.46;70.91;100107.50;5053036;28;20190;-77
2023/07/05 03:09:19;;;;;;;8.10;5.30;;;16.90;99.00;;;16.43;70.61;100097.13;5053309;28;20182;-77
2023/07/05 03:11:51;;;;;;;11.50;6.30;;;16.90;99.10;;;16.38;71.48;100090.69;5053295;28;20193;-77
2023/07/05 03:14:23;;;;;;;10.20;6.60;;;16.80;99.40;;;16.36;70.81;100085.50;5053161;28;20288;-77
2023/07/05 03:16:55;;;;;;;8.73;5.37;;;16.80;99.20;;;16.32;72.02;100078.88;5053124;28;20237;-77
2023/07/05 03:19:27;;;;;;;7.80;5.67;;;16.70;99.60;;;16.29;72.47;100076.59;5053173;28;20244;-77
2023/07/05 03:22:00;;;;;;;9.87;6.20;;;16.70;99.80;;;16.27;71.07;100075.97;5053173;28;20209;-77
2023/07/05 03:24:32;;;;;;;10.87;6.17;;;16.70;99.70;;;16.30;73.06;100058.53;5053073;28;20265;-77
2023/07/05 03:27:04;;;;;;;12.63;6.60;;;16.70;99.90;;;16.25;72.87;100053.75;5053087;28;20269;-77
2023/07/05 03:29:36;;;;;;;9.50;6.30;;;16.70;99.90;;;16.18;73.20;100055.66;5053110;28;20277;-77
2023/07/05 03:32:08;;;;;;;10.37;6.43;;;16.60;99.90;;;16.18;73.63;100059.19;5053123;28;20214;-77
2023/07/05 03:34:40;;;;;;;10.10;6.33;;;16.60;99.90;;;16.17;72.78;100056.69;5052881;28;20269;-77
2023/07/05 03:37:13;;;;;;;9.63;6.17;;;16.60;99.90;;;16.09;73.77;100046.13;5053661;28;20244;-77
2023/07/05 03:39:45;;;;;;;8.23;6.10;;;16.50;99.90;;;16.11;73.48;100044.88;5052985;28;20297;-77
2023/07/05 03:42:17;;;;;;;8.47;6.30;;;16.50;99.90;;;16.11;72.93;100046.75;5053072;28;20191;-77
2023/07/05 03:44:49;;;;;;;9.43;6.47;;;16.50;99.90;;;16.16;73.13;100034.25;5052953;28;20236;-77
2023/07/05 03:47:21;;;;;;;9.33;6.70;;;16.60;99.90;;;16.15;72.92;100031.78;5053067;28;20238;-77
2023/07/05 03:49:52;;;;;;;9.73;6.67;;;16.60;99.90;;;16.14;73.95;100033.66;5052943;28;20190;-77
2023/07/05 03:52:26;;;;;;;9.97;6.33;;;16.60;99.90;;;16.21;74.64;100026.34;5052941;28;20278;-77
2023/07/05 03:54:59;;;;;;;10.20;6.57;;;16.60;99.90;;;16.19;74.85;100014.94;5052858;28;20221;-77
2023/07/05 03:57:31;;;;;;;10.50;5.93;;;16.60;99.90;;;16.19;73.83;100014.09;5052552;28;20194;-77
2023/07/05 04:00:03;;;;;;;11.60;7.47;;;16.60;99.90;;;16.17;73.94;99999.97;5052442;28;20304;-77
2023/07/05 04:02:35;;;;;;;10.07;6.53;;;16.60;99.90;;;16.18;73.70;99998.94;5052528;28;20226;-77
2023/07/05 04:05:08;;;;;;;9.80;6.37;;;16.60;99.90;;;16.11;74.64;100000.84;5052763;28;20226;-77
2023/07/05 04:07:41;;;;;;;12.90;6.97;;;16.60;99.90;;;16.05;73.54;99990.91;5052456;28;20641;-77
2023/07/05 04:10:13;;;;;;;11.50;6.33;;;16.50;99.90;;;16.04;74.55;99995.47;5052710;28;20197;-77
2023/07/05 04:12:45;;;;;;;10.57;7.20;;;16.50;99.90;;;16.04;74.35;99990.06;5052775;28;20195;-77
2023/07/05 04:15:17;;;;;;;9.37;6.77;;;16.50;99.90;;;16.06;74.35;99992.56;5052589;28;20280;-77
2023/07/05 04:17:49;;;;;;;10.33;6.70;;;16.50;99.90;;;16.07;73.51;99999.59;5052728;28;20353;-77
2023/07/05 04:20:20;;;;;;;10.87;6.67;;;16.50;99.90;;;16.06;73.74;99987.97;5052335;28;20221;-77
2023/07/05 04:22:53;;;;;;;12.97;7.20;;;16.50;99.90;;;15.97;74.45;99989.25;5052672;28;20294;-77
2023/07/05 04:25:25;;;;;;;11.23;7.20;;;16.40;99.90;;;15.97;74.19;99983.03;5052715;28;20234;-77
2023/07/05 04:27:57;;;;;;;12.33;7.40;;;16.40;99.90;;;15.92;75.23;99978.28;5053651;28;20245;-77
2023/07/05 04:30:29;;;;;;;12.13;6.97;;;16.30;99.90;;;15.94;75.95;99978.06;5056253;28;20617;-77
2023/07/05 04:33:01;;;;;;;8.20;7.30;;;16.40;99.90;;;15.94;74.81;99972.66;5055933;28;20199;-77
2023/07/05 04:35:33;;;;;;;11.13;7.37;;;16.40;99.90;;;15.99;74.96;99970.16;5055962;28;20238;-77
2023/07/05 04:38:08;;;;;;;9.57;7.17;;;16.40;99.90;;;16.00;74.85;99979.91;5055862;28;20205;-77
2023/07/05 04:40:39;;;;;;;10.17;7.83;;;16.40;99.90;;;16.01;74.74;99986.97;5056057;28;20297;-77
2023/07/05 04:43:11;;;;;;;9.93;7.83;;;16.50;99.90;;;16.00;75.02;99969.94;5056031;28;20281;-77
2023/07/05 04:45:48;;;;;;;13.37;7.60;;;16.50;99.90;;;16.01;75.13;99978.88;5055915;28;20317;-77
2023/07/05 04:48:20;;;;;;;9.33;7.50;;;16.50;99.90;;;15.98;74.26;99968.50;5055958;28;20189;-77
2023/07/05 04:50:54;;;;;;;10.00;7.47;;;16.60;99.90;;;16.00;73.66;99967.22;5055871;28;20269;-77
2023/07/05 04:53:30;;;;;;;9.93;7.37;;;16.50;99.90;;;15.99;74.53;99964.75;5055825;28;20194;-77
2023/07/05 04:56:03;;;;;;;10.33;7.70;;;16.50;99.90;;;15.99;73.81;99968.25;5055709;28;20232;-77
2023/07/05 04:58:35;;;;;;;10.47;7.27;;;16.50;99.90;;;16.00;74.98;99966.41;5055779;28;20213;-77
2023/07/05 05:01:08;;;;;;;11.57;7.87;;;16.40;99.90;;;15.97;75.92;99973.06;5055627;28;20301;-77
2023/07/05 05:03:41;;;;;;;10.97;8.40;;;16.50;99.90;;;15.98;76.53;99963.09;5055643;28;20190;-77
2023/07/05 05:06:12;;;;;;;8.90;7.60;;;16.50;99.90;;;15.97;76.65;99958.72;5055532;28;20230;-77
2023/07/05 05:08:46;;;;;;;10.10;7.50;;;16.40;99.90;;;15.94;77.52;99959.16;5055236;28;20186;-77
2023/07/05 05:11:17;;;;;;;9.83;7.73;;;16.40;99.90;;;15.91;76.72;99933.44;5055204;28;20629;-77
2023/07/05 05:13:50;;;;;;;9.00;7.53;;;16.40;99.90;;;15.91;77.89;99941.53;5055127;28;20674;-77
2023/07/05 05:16:22;;;;;;;10.83;8.00;;;16.40;99.90;;;15.93;78.11;99942.13;5055172;28;20599;-76
2023/07/05 05:18:54;;;;;;;9.67;8.00;;;16.40;99.90;;;15.95;77.79;99944.63;5055357;28;20191;-76
2023/07/05 05:21:26;;;;;;;9.97;8.40;;;16.40;99.90;;;15.97;79.03;99942.53;5055321;28;20297;-76
2023/07/05 05:24:00;;;;;;;11.03;8.00;;;16.50;99.90;;;15.97;79.37;99934.44;5055031;28;20226;-76
2023/07/05 05:26:32;;;;;;;9.83;7.77;;;16.50;99.90;;;15.97;78.04;99939.81;5055301;28;20281;-76
2023/07/05 05:29:04;;;;;;;10.93;8.00;;;16.50;99.90;;;15.95;78.57;99947.31;5055198;28;20277;-76
2023/07/05 05:31:37;;;;;;;10.37;7.73;;;16.50;99.90;;;15.96;78.68;99943.59;5055130;28;20190;-76
2023/07/05 05:34:09;;;;;;;9.50;7.90;;;16.60;99.90;;;15.96;79.78;99949.00;5054839;28;20242;-76
2023/07/05 05:36:41;;;;;;;10.67;7.73;;;16.40;99.90;;;15.95;80.87;99955.44;5055109;28;20277;-76
2023/07/05 05:39:15;;;;;;;10.90;7.93;;;16.50;99.90;;;15.94;81.02;99961.84;5053977;28;20320;-76
2023/07/05 05:41:46;;;;;;;9.77;7.50;;;16.40;99.90;;;15.89;82.12;99975.19;5054867;28;20586;-76
2023/07/05 05:44:18;;;;;;;12.97;8.07;;;16.50;99.90;;;15.81;81.95;99983.50;5055082;28;20317;-77
2023/07/05 05:46:50;;;;;;;10.23;7.30;;;16.30;99.90;;;15.75;81.69;99998.69;5054916;28;20278;-76
2023/07/05 05:49:22;;;;;;;12.23;8.00;;;16.30;99.90;;;15.76;82.29;100003.03;5054848;28;20243;-76
2023/07/05 05:51:54;;;;;;;11.50;8.30;;;16.30;99.90;;;15.67;84.19;100026.72;5054799;28;20193;-76
2023/07/05 05:54:28;;;;;;;9.67;7.43;;;16.20;99.90;;;15.60;84.80;100023.22;5054593;28;20232;-76
2023/07/05 05:57:00;;;;;;;9.63;6.53;;;16.20;99.90;;;15.62;85.28;100022.97;5054677;28;20201;-76
2023/07/05 05:59:32;;;;;;;8.70;5.07;;;16.20;99.90;;;15.70;84.54;100023.59;5055018;28;20194;-76
2023/07/05 06:02:04;;;;;;;8.83;5.23;;;16.30;99.90;;;15.70;86.42;100010.09;5054601;28;20308;-76
2023/07/05 06:04:36;;;;;;;10.17;4.77;;;16.30;99.90;;;15.71;87.00;100011.78;5054663;28;20230;-76
2023/07/05 06:07:08;;;;;;;10.83;5.57;;;16.30;99.90;;;15.69;86.49;99991.41;5054688;28;20229;-76
2023/07/05 06:09:46;;;;;;;8.80;4.40;;;16.20;99.90;;;15.73;85.69;99971.91;5054531;28;20226;-76
2023/07/05 06:12:18;;;;;;;6.37;4.30;;;16.30;99.90;;;15.75;85.51;99954.66;5054443;28;20237;-76
2023/07/05 06:14:50;;;;;;;7.57;4.10;;;16.30;99.90;;;15.75;86.31;99951.97;5054141;28;20312;-76
2023/07/05 06:17:22;;;;;;;5.60;4.10;;;16.20;99.90;;;15.78;86.40;99929.97;5054292;28;20193;-76
2023/07/05 06:19:54;;;;;;;6.57;4.67;;;16.30;99.90;;;15.80;85.65;99914.34;5054456;28;20194;-76
2023/07/05 06:22:26;;;;;;;6.47;4.40;;;16.30;99.90;;;15.82;85.76;99921.22;5054426;28;20241;-76
2023/07/05 06:24:59;;;;;;;6.43;4.80;;;16.30;99.90;;;15.84;86.04;99929.09;5054208;28;20229;-76
2023/07/05 06:27:31;;;;;;;5.67;4.53;;;16.40;99.90;;;15.84;86.99;99924.53;5053899;28;20193;-76
2023/07/05 06:30:03;;;;;;;6.17;4.57;;;16.40;99.90;;;15.86;87.72;99954.00;5054317;28;20248;-76
2023/07/05 06:32:35;;;;;;;6.57;5.00;;;16.30;99.90;;;15.84;88.09;99924.53;5054247;28;20557;-76
2023/07/05 06:35:08;;;;;;;5.53;4.97;;;16.40;99.90;;;15.86;88.03;99932.41;5053702;28;20613;-76
2023/07/05 06:37:40;;;;;;;11.53;5.87;;;16.40;99.90;;;15.89;88.43;99934.69;5054069;28;20213;-76
2023/07/05 06:40:14;;;;;;;5.80;5.20;;;16.40;99.90;;;15.90;88.85;99966.03;5054032;28;20221;-76
2023/07/05 06:42:46;;;;;;;6.03;5.00;;;16.40;99.90;;;15.89;89.72;99967.88;5053508;28;20554;-76
2023/07/05 06:45:17;;;;;;;7.70;5.13;;;16.40;99.90;;;15.92;89.14;99945.88;5053536;28;20312;-76
2023/07/05 06:47:50;;;;;;;6.63;4.90;;;16.40;99.90;;;15.94;89.57;99924.06;5054042;28;20206;-76
2023/07/05 06:50:22;;;;;;;6.13;4.83;;;16.40;99.90;;;15.94;89.61;99945.66;5053679;28;20203;-76
2023/07/05 06:52:54;;;;;;;5.53;4.70;;;16.60;99.90;;;15.94;90.19;99951.06;5053783;28;20267;-76
2023/07/05 06:55:47;;;;;;;10.90;5.03;;;16.50;99.90;;;15.99;89.36;99937.75;5053619;28;20253;-76
2023/07/05 06:58:20;;;;;;;6.43;5.30;;;16.50;99.90;;;16.03;89.74;99934.41;5053332;28;20541;-76
2023/07/05 07:00:52;;;;;;;5.80;5.20;;;16.50;99.90;;;16.07;90.36;99934.78;5053131;28;20281;-76
2023/07/05 07:03:25;;;;;;;7.30;5.60;;;16.60;99.90;;;16.11;89.50;99938.72;5053511;28;20263;-76
2023/07/05 07:05:59;;;;;;;7.90;5.40;;;16.70;99.90;;;16.14;90.90;99959.91;5053024;28;20226;-76
2023/07/05 07:08:38;;;;;;;9.73;5.90;;;16.70;99.90;;;16.16;91.80;99955.94;5053479;28;20221;-76
2023/07/05 07:11:13;;;;;;;6.67;5.53;;;16.70;99.90;;;16.21;91.31;99952.59;5053470;28;20190;-76
2023/07/05 07:13:46;;;;;;;7.23;5.47;;;16.70;99.90;;;16.24;91.47;99955.69;5053331;28;20232;-76
2023/07/05 07:16:19;;;;;;;6.40;4.93;;;16.80;99.90;;;16.31;91.82;99961.06;5053865;28;20190;-76
2023/07/05 07:18:55;;;;;;;6.43;5.63;;;16.80;99.90;;;16.35;92.08;99970.38;5053349;28;20244;-76
2023/07/05 07:21:27;;;;;;;5.53;5.00;;;16.90;99.90;;;16.40;92.17;99973.28;5053160;28;20296;-76
2023/07/05 07:23:59;;;;;;;8.40;5.53;;;17.00;99.90;;;16.46;93.73;99983.22;5053210;28;20221;-76
2023/07/05 07:26:32;;;;;;;6.90;5.13;;;17.00;99.90;;;16.50;93.35;99989.84;5053281;28;20237;-76
2023/07/05 07:29:04;;;;;;;5.13;4.60;;;17.00;99.90;;;16.52;93.64;99982.34;5052837;28;20667;-76
2023/07/05 07:31:38;;;;;;;5.87;4.70;;;17.10;99.90;;;16.55;93.62;99992.75;5053163;28;20191;-76
2023/07/05 07:34:10;;;;;;;5.73;4.60;;;17.10;99.90;;;16.60;93.57;99995.63;5053005;28;20229;-76
2023/07/05 07:36:42;;;;;;;8.37;4.67;;;17.20;99.90;;;16.69;93.39;99999.72;5053279;28;20281;-76
2023/07/05 07:39:15;;;;;;;7.33;4.23;;;17.20;99.90;;;16.79;91.16;99995.72;5053057;28;20285;-76
2023/07/05 07:41:48;;;;;;;5.73;3.97;;;17.50;99.90;;;16.91;89.56;100015.59;5053200;28;20297;-76
2023/07/05 07:44:22;;;;;;;5.40;3.70;;;17.50;99.90;;;16.97;88.79;100006.59;5052903;28;20603;-76
2023/07/05 07:46:54;;;;;;;4.07;3.30;;;17.50;99.90;;;17.01;89.40;100015.94;5053316;28;20228;-76
2023/07/05 07:49:26;;;;;;;5.13;3.40;;;17.70;99.90;;;16.99;88.20;100020.72;5052812;28;20560;-76
2023/07/05 07:51:59;;;;;;;4.50;3.00;;;17.50;99.90;;;16.89;86.02;100028.50;5053166;28;20186;-76
2023/07/05 07:54:31;;;;;;;3.00;2.53;;;17.50;99.90;;;16.53;78.18;100032.66;5052814;28;20260;-76
2023/07/05 07:57:05;;;;;;;4.00;3.07;;;17.10;99.90;;;16.32;75.94;100042.94;5053114;28;20237;-76
2023/07/05 07:59:41;;;;;;;6.20;3.23;;;16.90;99.90;;;16.29;75.08;100056.88;5053047;28;20244;-76
2023/07/05 08:02:16;;;;;;;4.67;3.40;;;16.80;99.90;;;16.23;76.68;100050.47;5053010;28;20252;-76
2023/07/05 08:04:50;;;;;;;4.17;3.30;;;16.80;99.90;;;16.22;75.47;100057.72;5056547;28;20267;-76
2023/07/05 08:07:23;;;;;;;5.23;3.17;;;16.80;99.90;;;16.26;76.46;100060.81;5056912;28;20244;-76
2023/07/05 08:09:58;;;;;;;6.13;3.43;;;16.80;99.90;;;16.22;76.01;100073.09;5056901;28;20606;-76
2023/07/05 08:12:32;;;;;;;4.43;3.30;;;16.70;99.90;;;16.27;75.65;100065.16;5056780;28;20217;-76
2023/07/05 08:15:04;;;;;;;6.20;3.50;;;16.80;99.90;;;16.39;76.02;100071.56;5056724;28;20230;-76
2023/07/05 08:17:37;;;;;;;4.83;3.30;;;16.90;99.90;;;16.54;75.99;100052.41;5056708;28;20281;-76
2023/07/05 08:20:08;;;;;;;5.73;3.50;;;17.10;99.90;;;16.69;77.39;100063.78;5056680;28;20198;-76
2023/07/05 08:22:40;;;;;;;8.63;3.30;;;17.20;99.90;;;16.81;73.42;100061.22;5056531;28;20206;-76
2023/07/05 08:25:14;;;;;;;6.27;3.23;;;17.40;99.90;;;16.91;73.79;100066.97;5056221;28;20268;-76
2023/07/05 08:27:48;;;;;;;4.20;3.33;;;17.50;99.90;;;17.03;71.51;100071.47;5056233;28;20648;-76
2023/07/05 08:30:19;;;;;;;4.83;3.20;;;17.60;99.90;;;17.07;70.46;100077.28;5056492;28;20202;-76
2023/07/05 08:32:51;;;;;;;4.37;3.03;;;17.70;99.90;;;17.15;67.31;100077.00;5056099;28;20633;-76
2023/07/05 08:35:23;;;;;;;7.30;2.90;;;17.70;99.90;;;17.22;70.42;100083.22;5055964;28;20241;-76
2023/07/05 08:37:55;;;;;;;4.23;2.93;;;17.80;99.90;;;17.31;70.34;100089.16;5056350;28;20240;-76
2023/07/05 08:40:38;;;;;;;4.43;3.10;;;17.90;99.90;;;17.31;69.64;100084.59;5056229;28;20274;-76
2023/07/05 08:43:29;;;;;;;3.17;2.87;;;17.90;99.90;;;17.46;67.15;100098.63;5057036;28;20305;-77
2023/07/05 08:46:11;;;;;;;3.60;2.87;;;18.00;99.70;;;17.58;64.72;100099.59;5056111;28;20222;-77
2023/07/05 08:48:44;;;;;;;5.47;3.20;;;18.10;98.50;;;17.62;66.93;100095.41;5056172;28;20201;-77
2023/07/05 08:51:18;;;;;;;4.73;3.07;;;18.20;99.60;;;17.71;64.37;100107.59;5056551;28;20221;-77
2023/07/05 08:53:57;;;;;;;4.67;2.77;;;18.20;98.90;;;17.68;59.66;100083.69;5055924;28;20197;-77
2023/07/05 08:56:38;;;;;;;8.37;3.30;;;18.30;96.00;;;17.69;60.51;100098.88;5055971;28;20289;-77
2023/07/05 08:59:26;;;;;;;3.27;2.67;;;18.30;96.40;;;17.58;61.68;100123.13;5055919;28;20198;-77
2023/07/05 09:02:00;;;;;;;5.90;2.80;;;18.10;96.50;;;17.43;59.71;100104.47;5055860;28;20187;-77
2023/07/05 09:04:34;;;;;;;4.27;3.00;;;17.90;95.70;;;17.57;60.02;100111.47;5055540;28;20226;-77
2023/07/05 09:07:20;;;;;;;5.40;2.80;;;18.10;95.80;;;17.69;59.52;100108.88;5055850;28;20222;-77
2023/07/05 09:10:07;;;;;;;5.57;2.70;;;18.20;95.40;;;17.80;58.38;100115.44;5055822;28;20225;-77
2023/07/05 09:12:51;;;;;;;4.67;2.90;;;18.30;94.90;;;17.95;58.08;100124.88;5055733;28;20228;-77
2023/07/05 09:15:33;;;;;;;5.27;3.03;;;18.50;94.50;;;17.94;58.40;100125.94;5054944;28;20225;-78
2023/07/05 09:18:20;;;;;;;4.47;3.10;;;18.50;94.60;;;17.94;58.37;100133.22;5055622;28;20224;-77
2023/07/05 09:21:11;;;;;;;4.73;3.03;;;18.50;94.70;;;18.01;59.55;100134.00;5055625;28;20198;-77
2023/07/05 09:24:00;;;;;;;5.67;2.73;;;18.60;95.30;;;18.13;61.08;100141.16;5055448;28;20218;-77
2023/07/05 09:26:41;;;;;;;4.50;3.00;;;18.70;96.20;;;18.24;56.35;100142.31;5055494;28;20190;-77
2023/07/05 09:29:31;;;;;;;4.03;2.70;;;18.80;94.00;;;18.30;57.82;100137.84;5055381;28;20225;-78
2023/07/05 09:32:15;;;;;;;4.07;3.07;;;18.80;93.40;;;18.31;56.16;100140.34;5055320;28;20202;-78
2023/07/05 09:34:55;;;;;;;6.43;2.83;;;18.80;93.00;;;18.37;56.36;100139.44;5054973;28;20268;-78
2023/07/05 09:37:37;;;;;;;4.50;3.00;;;18.90;92.80;;;18.51;56.67;100143.69;5055214;28;20277;-77
2023/07/05 09:40:20;;;;;;;4.37;2.50;;;19.00;93.60;;;18.53;54.35;100149.72;5055166;28;20285;-77
2023/07/05 09:43:00;;;;;;;5.87;3.03;;;19.10;91.90;;;18.51;54.70;100146.41;5055037;28;20379;-77
2023/07/05 09:45:32;;;;;;;4.60;2.83;;;19.00;91.70;;;18.44;53.85;100145.63;5054679;28;20253;-77
2023/07/05 09:48:10;;;;;;;6.73;2.93;;;19.00;91.50;;;18.52;52.99;100142.66;5055134;28;20245;-77
2023/07/05 09:50:51;;;;;;;3.27;2.67;;;19.10;91.20;;;18.63;51.60;100155.44;5054983;28;20264;-77
2023/07/05 09:53:39;;;;;;;4.00;2.60;;;19.10;90.00;;;18.68;52.74;100152.88;5054961;28;20240;-77
2023/07/05 09:56:14;;;;;;;5.00;2.97;;;19.20;90.70;;;18.72;52.75;100145.13;5054791;28;20222;-77
2023/07/05 09:58:48;;;;;;;2.93;2.63;;;19.20;90.40;;;18.63;51.55;100154.63;5054780;28;20274;-76
2023/07/05 10:01:26;;;;;;;3.80;2.47;;;19.10;89.90;;;18.45;50.02;100144.56;5054807;28;20199;-76
2023/07/05 10:04:06;;;;;;;3.27;2.50;;;19.00;89.00;;;18.39;51.18;100148.16;5054574;28;20214;-77
2023/07/05 10:06:42;;;;;;;5.20;2.63;;;18.90;88.50;;;18.58;51.11;100152.59;5054751;28;20198;-78
2023/07/05 10:09:20;;;;;;;4.17;2.70;;;19.10;89.50;;;18.70;49.81;100156.19;5054641;28;20190;-77
2023/07/05 10:11:57;;;;;;;3.50;2.40;;;19.20;87.90;;;18.75;49.42;100158.22;5054540;28;20191;-77
2023/07/05 10:14:36;;;;;;;4.60;2.63;;;19.20;86.70;;;18.87;50.60;100182.72;5054404;28;20226;-77
2023/07/05 10:17:12;;;;;;;3.27;2.97;;;19.40;87.60;;;18.89;50.41;100169.72;5054487;28;20209;-77
2023/07/05 10:19:52;;;;;;;4.77;2.50;;;19.40;87.60;;;18.76;49.73;100175.31;5054433;28;20277;-77
2023/07/05 10:22:34;;;;;;;3.57;2.20;;;19.30;84.90;;;18.74;50.34;100195.34;5054301;28;20557;-77
2023/07/05 10:25:18;;;;;;;5.13;2.30;;;19.20;86.80;;;18.82;49.59;100196.09;5053872;28;20226;-77
2023/07/05 10:27:51;;;;;;;4.17;2.60;;;19.30;87.40;;;18.89;49.65;100191.44;5054274;28;20290;-77
2023/07/05 10:30:24;;;;;;;3.43;2.13;;;19.40;86.40;;;18.97;50.30;100191.13;5054176;28;20226;-77
2023/07/05 10:33:20;;;;;;;4.40;2.40;;;19.40;86.90;;;19.08;50.69;100212.03;5054201;28;20222;-77
2023/07/05 10:36:02;;;;;;;2.50;2.30;;;19.60;86.90;;;19.00;48.52;100224.06;5053664;28;20245;-77
2023/07/05 10:38:44;;;;;;;4.80;2.17;;;19.50;84.70;;;18.92;49.58;100205.38;5054611;28;20190;-77
2023/07/05 10:41:32;;;;;;;3.37;2.20;;;19.50;86.00;;;18.76;49.74;100226.84;5053751;28;20660;-77
2023/07/05 10:44:16;;;;;;;6.40;2.40;;;19.30;84.40;;;18.83;49.42;100224.91;5053840;28;20256;-77
2023/07/05 10:46:51;;;;;;;3.73;2.13;;;19.30;85.10;;;18.77;49.21;100217.66;5053938;28;20570;-77